sensor_id;sensor_type;location;lat;lon;timestamp;P1;P2;P0
13030;PMS7003;6582;54.644;9.760;2022-12-10T00:00:02;295.2;290.8;
13030;PMS7003;6582;54.644;9.760;2022-12-10T00:05:02;330.2;327.6;
13030;PMS7003;6582;54.644;9.760;2022-12-10T00:10:12;311.6;307.6;
13030;PMS7003;6582;54.644;9.760;2022-12-10T00:15:07;337.3;334.4;
13030;PMS7003;6582;54.644;9.760;2022-12-10T00:20:02;314.4;309.9;
13030;PMS7003;6582;54.644;9.760;2022-12-10T00:25:02;336.9;332.8;
13030;PMS7003;6582;54.644;9.760;2022-12-10T00:30:02;320.9;315.7;
13030;PMS7003;6582;54.644;9.760;2022-12-10T00:35:02;350.8;346.6;
13030;PMS7003;6582;54.644;9.760;2022-12-10T00:40:04;347.4;343.1;
13030;PMS7003;6582;54.644;9.760;2022-12-10T00:45:07;345.9;341.2;
13030;PMS7003;6582;54.644;9.760;2022-12-10T00:50:08;335.2;329.7;
13030;PMS7003;6582;54.644;9.760;2022-12-10T00:55:02;318.4;312.0;
13030;PMS7003;6582;54.644;9.760;2022-12-10T01:00:03;309.4;303.0;
13030;PMS7003;6582;54.644;9.760;2022-12-10T01:05:02;279.4;272.5;
13030;PMS7003;6582;54.644;9.760;2022-12-10T01:10:08;282.1;276.7;
13030;PMS7003;6582;54.644;9.760;2022-12-10T01:15:07;284.7;279.7;
13030;PMS7003;6582;54.644;9.760;2022-12-10T01:20:02;308.5;305.6;
13030;PMS7003;6582;54.644;9.760;2022-12-10T01:25:02;309.6;305.8;
13030;PMS7003;6582;54.644;9.760;2022-12-10T01:30:02;312.2;308.1;
13030;PMS7003;6582;54.644;9.760;2022-12-10T01:35:02;329.6;325.6;
13030;PMS7003;6582;54.644;9.760;2022-12-10T01:40:02;337.7;334.5;
13030;PMS7003;6582;54.644;9.760;2022-12-10T01:45:09;327.4;323.6;
13030;PMS7003;6582;54.644;9.760;2022-12-10T01:50:02;315.0;312.4;
13030;PMS7003;6582;54.644;9.760;2022-12-10T01:55:05;308.8;306.4;
13030;PMS7003;6582;54.644;9.760;2022-12-10T02:00:03;303.2;300.7;
13030;PMS7003;6582;54.644;9.760;2022-12-10T02:25:02;421.0;415.0;
13030;PMS7003;6582;54.644;9.760;2022-12-10T02:30:02;386.1;380.3;
13030;PMS7003;6582;54.644;9.760;2022-12-10T02:35:15;396.7;391.7;
13030;PMS7003;6582;54.644;9.760;2022-12-10T02:40:09;377.5;373.5;
13030;PMS7003;6582;54.644;9.760;2022-12-10T02:45:02;374.6;371.0;
13030;PMS7003;6582;54.644;9.760;2022-12-10T02:50:01;367.9;364.9;
13030;PMS7003;6582;54.644;9.760;2022-12-10T02:55:02;372.1;369.6;
13030;PMS7003;6582;54.644;9.760;2022-12-10T03:15:03;315.4;313.0;
13030;PMS7003;6582;54.644;9.760;2022-12-10T03:20:02;370.9;367.3;
13030;PMS7003;6582;54.644;9.760;2022-12-10T03:25:01;343.3;339.9;
13030;PMS7003;6582;54.644;9.760;2022-12-10T03:30:07;346.8;344.1;
13030;PMS7003;6582;54.644;9.760;2022-12-10T03:35:02;322.3;319.1;
13030;PMS7003;6582;54.644;9.760;2022-12-10T03:40:01;307.2;303.6;
13030;PMS7003;6582;54.644;9.760;2022-12-10T03:45:01;283.9;281.2;
13030;PMS7003;6582;54.644;9.760;2022-12-10T03:50:02;272.5;268.1;
13030;PMS7003;6582;54.644;9.760;2022-12-10T03:55:02;254.8;249.4;
13030;PMS7003;6582;54.644;9.760;2022-12-10T04:00:03;272.8;268.3;
13030;PMS7003;6582;54.644;9.760;2022-12-10T04:05:06;326.6;322.1;
13030;PMS7003;6582;54.644;9.760;2022-12-10T04:10:02;328.0;323.0;
13030;PMS7003;6582;54.644;9.760;2022-12-10T04:15:02;343.5;340.5;
13030;PMS7003;6582;54.644;9.760;2022-12-10T04:20:01;350.2;347.7;
13030;PMS7003;6582;54.644;9.760;2022-12-10T04:25:02;353.0;350.4;
13030;PMS7003;6582;54.644;9.760;2022-12-10T04:30:03;320.2;318.2;
13030;PMS7003;6582;54.644;9.760;2022-12-10T04:35:02;329.1;327.5;
13030;PMS7003;6582;54.644;9.760;2022-12-10T04:40:02;337.8;336.2;
13030;PMS7003;6582;54.644;9.760;2022-12-10T04:45:01;356.9;355.5;
13030;PMS7003;6582;54.644;9.760;2022-12-10T04:50:01;358.8;357.6;
13030;PMS7003;6582;54.644;9.760;2022-12-10T04:55:01;348.8;347.3;
13030;PMS7003;6582;54.644;9.760;2022-12-10T05:00:08;342.4;341.0;
13030;PMS7003;6582;54.644;9.760;2022-12-10T05:05:01;355.4;354.3;
13030;PMS7003;6582;54.644;9.760;2022-12-10T05:10:01;345.0;344.4;
13030;PMS7003;6582;54.644;9.760;2022-12-10T05:15:02;360.9;360.3;
13030;PMS7003;6582;54.644;9.760;2022-12-10T05:20:02;366.1;365.7;
13030;PMS7003;6582;54.644;9.760;2022-12-10T05:25:02;364.9;364.4;
13030;PMS7003;6582;54.644;9.760;2022-12-10T05:30:01;348.9;348.1;
13030;PMS7003;6582;54.644;9.760;2022-12-10T05:35:01;357.5;356.7;
13030;PMS7003;6582;54.644;9.760;2022-12-10T05:40:02;347.6;346.4;
13030;PMS7003;6582;54.644;9.760;2022-12-10T05:45:01;363.4;362.6;
13030;PMS7003;6582;54.644;9.760;2022-12-10T05:50:01;373.5;372.3;
13030;PMS7003;6582;54.644;9.760;2022-12-10T05:55:01;378.8;378.0;
13030;PMS7003;6582;54.644;9.760;2022-12-10T06:00:03;401.1;400.0;
13030;PMS7003;6582;54.644;9.760;2022-12-10T06:05:01;409.9;408.7;
13030;PMS7003;6582;54.644;9.760;2022-12-10T06:10:01;408.6;407.2;
13030;PMS7003;6582;54.644;9.760;2022-12-10T06:15:01;420.0;418.7;
13030;PMS7003;6582;54.644;9.760;2022-12-10T06:20:01;425.3;423.9;
13030;PMS7003;6582;54.644;9.760;2022-12-10T06:25:06;413.8;412.6;
13030;PMS7003;6582;54.644;9.760;2022-12-10T06:30:01;411.9;410.1;
13030;PMS7003;6582;54.644;9.760;2022-12-10T06:35:01;419.8;418.2;
13030;PMS7003;6582;54.644;9.760;2022-12-10T06:40:01;411.0;409.6;
13030;PMS7003;6582;54.644;9.760;2022-12-10T06:45:01;412.0;410.6;
13030;PMS7003;6582;54.644;9.760;2022-12-10T06:50:02;400.7;399.2;
13030;PMS7003;6582;54.644;9.760;2022-12-10T06:55:02;403.6;403.1;
13030;PMS7003;6582;54.644;9.760;2022-12-10T07:00:01;394.6;394.0;
13030;PMS7003;6582;54.644;9.760;2022-12-10T07:05:01;400.8;400.4;
13030;PMS7003;6582;54.644;9.760;2022-12-10T07:10:02;404.8;404.4;
13030;PMS7003;6582;54.644;9.760;2022-12-10T07:15:01;408.5;408.4;
13030;PMS7003;6582;54.644;9.760;2022-12-10T07:20:01;397.3;397.2;
13030;PMS7003;6582;54.644;9.760;2022-12-10T07:25:01;403.0;403.0;
13030;PMS7003;6582;54.644;9.760;2022-12-10T07:30:01;399.1;398.8;
13030;PMS7003;6582;54.644;9.760;2022-12-10T07:35:01;398.0;397.7;
13030;PMS7003;6582;54.644;9.760;2022-12-10T07:40:01;403.8;403.0;
13030;PMS7003;6582;54.644;9.760;2022-12-10T07:45:01;406.5;405.2;
13030;PMS7003;6582;54.644;9.760;2022-12-10T07:50:02;408.0;406.7;
13030;PMS7003;6582;54.644;9.760;2022-12-10T07:55:01;411.1;409.8;
13030;PMS7003;6582;54.644;9.760;2022-12-10T08:00:02;417.2;415.9;
13030;PMS7003;6582;54.644;9.760;2022-12-10T08:05:01;391.6;389.8;
13030;PMS7003;6582;54.644;9.760;2022-12-10T08:10:01;395.9;394.4;
13030;PMS7003;6582;54.644;9.760;2022-12-10T08:15:07;389.5;388.0;
13030;PMS7003;6582;54.644;9.760;2022-12-10T08:20:01;380.9;379.2;
13030;PMS7003;6582;54.644;9.760;2022-12-10T08:25:02;370.8;369.1;
13030;PMS7003;6582;54.644;9.760;2022-12-10T08:30:01;390.3;389.2;
13030;PMS7003;6582;54.644;9.760;2022-12-10T08:35:01;372.8;371.0;
13030;PMS7003;6582;54.644;9.760;2022-12-10T08:40:06;384.2;382.0;
13030;PMS7003;6582;54.644;9.760;2022-12-10T08:45:01;370.8;368.4;
13030;PMS7003;6582;54.644;9.760;2022-12-10T08:50:02;363.5;360.2;
13030;PMS7003;6582;54.644;9.760;2022-12-10T08:55:01;362.2;358.8;
13030;PMS7003;6582;54.644;9.760;2022-12-10T09:00:06;346.5;342.2;
13030;PMS7003;6582;54.644;9.760;2022-12-10T09:05:02;322.6;318.8;
13030;PMS7003;6582;54.644;9.760;2022-12-10T09:10:01;324.5;321.0;
13030;PMS7003;6582;54.644;9.760;2022-12-10T09:15:07;304.8;301.6;
13030;PMS7003;6582;54.644;9.760;2022-12-10T09:20:01;279.6;275.8;
13030;PMS7003;6582;54.644;9.760;2022-12-10T09:25:01;282.0;279.4;
13030;PMS7003;6582;54.644;9.760;2022-12-10T09:30:01;269.8;267.2;
13030;PMS7003;6582;54.644;9.760;2022-12-10T09:35:01;265.9;263.6;
13030;PMS7003;6582;54.644;9.760;2022-12-10T09:40:01;277.4;275.2;
13030;PMS7003;6582;54.644;9.760;2022-12-10T09:45:04;288.4;287.1;
13030;PMS7003;6582;54.644;9.760;2022-12-10T09:50:03;293.8;293.1;
13030;PMS7003;6582;54.644;9.760;2022-12-10T09:55:02;300.9;300.0;
13030;PMS7003;6582;54.644;9.760;2022-12-10T10:00:04;304.4;303.5;
13030;PMS7003;6582;54.644;9.760;2022-12-10T10:05:09;284.0;282.2;
13030;PMS7003;6582;54.644;9.760;2022-12-10T10:10:05;272.2;270.2;
13030;PMS7003;6582;54.644;9.760;2022-12-10T10:15:14;271.9;269.3;
13030;PMS7003;6582;54.644;9.760;2022-12-10T10:35:03;278.4;275.0;
13030;PMS7003;6582;54.644;9.760;2022-12-10T10:40:01;284.0;280.4;
13030;PMS7003;6582;54.644;9.760;2022-12-10T10:45:04;291.6;288.5;
13030;PMS7003;6582;54.644;9.760;2022-12-10T10:50:02;273.4;270.2;
13030;PMS7003;6582;54.644;9.760;2022-12-10T10:55:01;270.4;267.0;
13030;PMS7003;6582;54.644;9.760;2022-12-10T11:15:01;274.8;274.6;
13030;PMS7003;6582;54.644;9.760;2022-12-10T11:20:12;316.9;316.1;
13030;PMS7003;6582;54.644;9.760;2022-12-10T11:25:01;279.5;276.4;
13030;PMS7003;6582;54.644;9.760;2022-12-10T11:30:03;263.0;259.4;
13030;PMS7003;6582;54.644;9.760;2022-12-10T11:35:04;258.3;254.7;
13030;PMS7003;6582;54.644;9.760;2022-12-10T11:45:03;246.2;241.7;
13030;PMS7003;6582;54.644;9.760;2022-12-10T11:50:13;253.9;250.0;
13030;PMS7003;6582;54.644;9.760;2022-12-10T11:55:24;255.7;252.0;
13030;PMS7003;6582;54.644;9.760;2022-12-10T12:00:18;258.7;255.0;
13030;PMS7003;6582;54.644;9.760;2022-12-10T12:25:05;314.6;313.2;
13030;PMS7003;6582;54.644;9.760;2022-12-10T12:30:05;298.6;296.7;
13030;PMS7003;6582;54.644;9.760;2022-12-10T12:35:04;303.3;301.5;
13030;PMS7003;6582;54.644;9.760;2022-12-10T13:15:11;260.6;260.2;
13030;PMS7003;6582;54.644;9.760;2022-12-10T13:35:21;323.0;323.0;
13030;PMS7003;6582;54.644;9.760;2022-12-10T13:55:07;274.8;269.4;
13030;PMS7003;6582;54.644;9.760;2022-12-10T14:15:03;287.0;283.4;
13030;PMS7003;6582;54.644;9.760;2022-12-10T14:20:03;301.2;298.9;
13030;PMS7003;6582;54.644;9.760;2022-12-10T14:25:03;285.3;282.9;
13030;PMS7003;6582;54.644;9.760;2022-12-10T14:30:05;286.6;282.6;
13030;PMS7003;6582;54.644;9.760;2022-12-10T14:35:03;293.0;289.4;
13030;PMS7003;6582;54.644;9.760;2022-12-10T14:40:04;302.0;298.7;
13030;PMS7003;6582;54.644;9.760;2022-12-10T14:45:03;302.9;299.8;
13030;PMS7003;6582;54.644;9.760;2022-12-10T14:50:01;315.5;312.7;
13030;PMS7003;6582;54.644;9.760;2022-12-10T14:55:02;325.0;323.9;
13030;PMS7003;6582;54.644;9.760;2022-12-10T15:00:05;318.1;317.0;
13030;PMS7003;6582;54.644;9.760;2022-12-10T15:05:02;313.7;312.0;
13030;PMS7003;6582;54.644;9.760;2022-12-10T15:10:02;316.4;314.6;
13030;PMS7003;6582;54.644;9.760;2022-12-10T15:15:04;314.4;312.1;
13030;PMS7003;6582;54.644;9.760;2022-12-10T15:20:17;308.4;305.1;
13030;PMS7003;6582;54.644;9.760;2022-12-10T15:25:12;314.0;311.3;
13030;PMS7003;6582;54.644;9.760;2022-12-10T15:30:20;304.2;301.2;
13030;PMS7003;6582;54.644;9.760;2022-12-10T15:45:04;274.6;272.0;
13030;PMS7003;6582;54.644;9.760;2022-12-10T15:50:01;301.5;298.9;
13030;PMS7003;6582;54.644;9.760;2022-12-10T15:55:02;312.3;310.5;
13030;PMS7003;6582;54.644;9.760;2022-12-10T16:00:04;289.8;287.2;
13030;PMS7003;6582;54.644;9.760;2022-12-10T16:05:30;293.4;291.0;
13030;PMS7003;6582;54.644;9.760;2022-12-10T16:25:02;319.8;315.6;
13030;PMS7003;6582;54.644;9.760;2022-12-10T16:30:08;318.0;315.9;
13030;PMS7003;6582;54.644;9.760;2022-12-10T16:35:01;328.1;325.8;
13030;PMS7003;6582;54.644;9.760;2022-12-10T16:40:06;327.1;325.3;
13030;PMS7003;6582;54.644;9.760;2022-12-10T16:45:18;324.9;323.1;
13030;PMS7003;6582;54.644;9.760;2022-12-10T16:50:01;327.0;325.9;
13030;PMS7003;6582;54.644;9.760;2022-12-10T16:55:01;327.5;326.4;
13030;PMS7003;6582;54.644;9.760;2022-12-10T17:00:01;318.8;317.7;
13030;PMS7003;6582;54.644;9.760;2022-12-10T17:05:15;318.0;316.0;
13030;PMS7003;6582;54.644;9.760;2022-12-10T17:10:02;323.1;321.6;
13030;PMS7003;6582;54.644;9.760;2022-12-10T17:15:12;337.0;335.4;
13030;PMS7003;6582;54.644;9.760;2022-12-10T17:20:14;342.6;341.0;
13030;PMS7003;6582;54.644;9.760;2022-12-10T17:25:01;355.1;354.0;
13030;PMS7003;6582;54.644;9.760;2022-12-10T17:30:01;356.5;356.2;
13030;PMS7003;6582;54.644;9.760;2022-12-10T17:35:01;353.0;351.6;
13030;PMS7003;6582;54.644;9.760;2022-12-10T17:40:01;349.7;348.1;
13030;PMS7003;6582;54.644;9.760;2022-12-10T17:45:01;342.9;340.9;
13030;PMS7003;6582;54.644;9.760;2022-12-10T17:50:02;345.1;343.1;
13030;PMS7003;6582;54.644;9.760;2022-12-10T17:55:01;337.0;334.8;
13030;PMS7003;6582;54.644;9.760;2022-12-10T18:00:02;335.7;333.9;
13030;PMS7003;6582;54.644;9.760;2022-12-10T18:05:01;329.4;328.0;
13030;PMS7003;6582;54.644;9.760;2022-12-10T18:10:02;330.0;329.1;
13030;PMS7003;6582;54.644;9.760;2022-12-10T18:15:02;311.9;310.8;
13030;PMS7003;6582;54.644;9.760;2022-12-10T18:20:01;329.4;328.5;
13030;PMS7003;6582;54.644;9.760;2022-12-10T18:25:01;327.0;326.7;
13030;PMS7003;6582;54.644;9.760;2022-12-10T18:30:01;321.9;321.6;
13030;PMS7003;6582;54.644;9.760;2022-12-10T18:35:01;327.9;327.4;
13030;PMS7003;6582;54.644;9.760;2022-12-10T18:40:01;327.1;325.4;
13030;PMS7003;6582;54.644;9.760;2022-12-10T18:45:02;315.2;313.0;
13030;PMS7003;6582;54.644;9.760;2022-12-10T18:50:01;322.8;319.9;
13030;PMS7003;6582;54.644;9.760;2022-12-10T18:55:02;333.6;330.3;
13030;PMS7003;6582;54.644;9.760;2022-12-10T19:00:01;342.3;339.3;
13030;PMS7003;6582;54.644;9.760;2022-12-10T19:05:03;365.4;363.8;
13030;PMS7003;6582;54.644;9.760;2022-12-10T19:10:02;367.5;366.5;
13030;PMS7003;6582;54.644;9.760;2022-12-10T19:15:01;371.0;370.6;
13030;PMS7003;6582;54.644;9.760;2022-12-10T19:20:02;379.3;379.3;
13030;PMS7003;6582;54.644;9.760;2022-12-10T19:25:02;377.9;377.9;
13030;PMS7003;6582;54.644;9.760;2022-12-10T19:30:01;374.2;374.2;
13030;PMS7003;6582;54.644;9.760;2022-12-10T19:35:01;391.6;391.3;
13030;PMS7003;6582;54.644;9.760;2022-12-10T19:40:02;384.0;382.6;
13030;PMS7003;6582;54.644;9.760;2022-12-10T19:45:01;370.4;369.0;
13030;PMS7003;6582;54.644;9.760;2022-12-10T19:50:02;355.6;354.2;
13030;PMS7003;6582;54.644;9.760;2022-12-10T19:55:02;343.5;341.0;
13030;PMS7003;6582;54.644;9.760;2022-12-10T20:00:02;326.5;323.7;
13030;PMS7003;6582;54.644;9.760;2022-12-10T20:05:01;363.6;361.8;
13030;PMS7003;6582;54.644;9.760;2022-12-10T20:10:01;357.1;355.3;
13030;PMS7003;6582;54.644;9.760;2022-12-10T20:15:01;358.6;356.3;
13030;PMS7003;6582;54.644;9.760;2022-12-10T20:20:01;350.8;349.5;
13030;PMS7003;6582;54.644;9.760;2022-12-10T20:25:01;345.2;344.7;
13030;PMS7003;6582;54.644;9.760;2022-12-10T20:30:01;314.8;314.3;
13030;PMS7003;6582;54.644;9.760;2022-12-10T20:35:01;329.8;329.2;
13030;PMS7003;6582;54.644;9.760;2022-12-10T20:40:17;340.7;340.3;
13030;PMS7003;6582;54.644;9.760;2022-12-10T20:45:01;351.8;351.1;
13030;PMS7003;6582;54.644;9.760;2022-12-10T20:50:06;370.0;369.0;
13030;PMS7003;6582;54.644;9.760;2022-12-10T20:55:02;380.4;379.1;
13030;PMS7003;6582;54.644;9.760;2022-12-10T21:00:03;377.4;375.7;
13030;PMS7003;6582;54.644;9.760;2022-12-10T21:05:01;375.6;373.4;
13030;PMS7003;6582;54.644;9.760;2022-12-10T21:10:02;366.5;364.3;
13030;PMS7003;6582;54.644;9.760;2022-12-10T21:15:24;357.5;355.0;
13030;PMS7003;6582;54.644;9.760;2022-12-10T21:20:02;339.7;337.2;
13030;PMS7003;6582;54.644;9.760;2022-12-10T21:25:01;330.3;328.3;
13030;PMS7003;6582;54.644;9.760;2022-12-10T21:30:01;318.0;316.1;
13030;PMS7003;6582;54.644;9.760;2022-12-10T21:35:06;332.1;330.2;
13030;PMS7003;6582;54.644;9.760;2022-12-10T21:40:01;331.1;329.6;
13030;PMS7003;6582;54.644;9.760;2022-12-10T21:45:01;350.9;349.7;
13030;PMS7003;6582;54.644;9.760;2022-12-10T21:50:01;361.3;360.0;
13030;PMS7003;6582;54.644;9.760;2022-12-10T21:55:02;378.6;377.8;
13030;PMS7003;6582;54.644;9.760;2022-12-10T22:00:01;391.8;391.5;
13030;PMS7003;6582;54.644;9.760;2022-12-10T22:05:01;410.6;409.6;
13030;PMS7003;6582;54.644;9.760;2022-12-10T22:10:02;423.9;423.0;
13030;PMS7003;6582;54.644;9.760;2022-12-10T22:15:01;433.0;432.1;
13030;PMS7003;6582;54.644;9.760;2022-12-10T22:20:01;448.9;448.3;
13030;PMS7003;6582;54.644;9.760;2022-12-10T22:25:01;459.8;459.0;
13030;PMS7003;6582;54.644;9.760;2022-12-10T22:30:11;461.3;460.8;
13030;PMS7003;6582;54.644;9.760;2022-12-10T22:35:01;464.6;464.0;
13030;PMS7003;6582;54.644;9.760;2022-12-10T22:40:01;468.7;467.6;
13030;PMS7003;6582;54.644;9.760;2022-12-10T22:45:02;537.0;536.0;
13030;PMS7003;6582;54.644;9.760;2022-12-10T22:50:01;551.2;549.8;
13030;PMS7003;6582;54.644;9.760;2022-12-10T22:55:01;553.3;551.9;
13030;PMS7003;6582;54.644;9.760;2022-12-10T23:00:02;564.8;563.2;
13030;PMS7003;6582;54.644;9.760;2022-12-10T23:05:01;565.7;564.1;
13030;PMS7003;6582;54.644;9.760;2022-12-10T23:10:02;505.5;503.9;
13030;PMS7003;6582;54.644;9.760;2022-12-10T23:15:01;515.3;514.2;
13030;PMS7003;6582;54.644;9.760;2022-12-10T23:20:01;530.3;529.1;
13030;PMS7003;6582;54.644;9.760;2022-12-10T23:25:01;540.5;539.5;
13030;PMS7003;6582;54.644;9.760;2022-12-10T23:30:01;562.2;561.6;
13030;PMS7003;6582;54.644;9.760;2022-12-10T23:35:01;580.8;580.0;
13030;PMS7003;6582;54.644;9.760;2022-12-10T23:40:01;545.6;544.2;
13030;PMS7003;6582;54.644;9.760;2022-12-10T23:45:01;570.2;568.8;
13030;PMS7003;6582;54.644;9.760;2022-12-10T23:50:01;546.3;544.7;
13030;PMS7003;6582;54.644;9.760;2022-12-10T23:55:01;537.1;535.6;
